Ana Sayfa
METAR-TAF:

METAR-TAF

Havaalanları :

Mürted Hava Üssü

Akıncı, Türkiye

Enlem: 40-05N, Boylam: 032-34E, yükseklik: 843 m

Güncel hava durumu gözlemi

Rapor saat 14:01 UTC de 1 saat ve 49 dakika önce yapıldı.
Rüzgar batıdan 21 kt
Sıcaklık 20°C
Nem 60%
Basınç 1011 hPa
Görüş mesafesi 10 km veya daha fazla
3000 ft yükseklikte az bulutlu, Kümülonimbus.
3500 ft yükseklikte parçalı çok bulutlu
gök gürültülü fırtına, hafif yağmur

METAR: LTAE 261401Z 27021KT 9999 -TSRA FEW030CB BKN035 20/12 Q1011 BECMG TL1450 NSW RMK RWY21 29016KT 260V320

Saat: 18:50 (15:50 UTC)


TAF: eksik

4.000'den fazla havaalanı için hava durumu gözlemleri ve tahminleri (METAR ve TAF raporları).

Kullanılabilir istasyonlar harita üzerinde sarı ve kırmızı noktalarla gösterilir.

İstasyonun adını görmek için fareyi noktanın üzerinde gezdirin.

Sonrasında hava gözlem ve tahminlerini görmek için tıklayın.

Haritayı değiştirmek için: yaklaştırmak için siyah artı işaretli yeşil düğmeye ve uzaklaştırmak için de eksi işaretli düğmeye hızla tıklayın; bitişik haritalar için yeşil okları kullanın.


METAR-TAF: